Time;durP1;ratioP1;P1;durP2;ratioP2;P2;SDS_P1;SDS_P2;PMS_P1;PMS_P2;Temp;Humidity;BMP_temperature;BMP_pressure;BME280_temperature;BME280_humidity;BME280_pressure;Samples;Min_cycle;Max_cycle;Signal;HPM_P1;HPM_P2
2023/12/19 00:01:08;;;;;;;16.65;13.82;;;;;;;2.90;80.42;99355.50;5012706;28;20136;-71
2023/12/19 00:03:34;;;;;;;14.10;12.52;;;;;;;3.02;80.45;99367.47;5022361;28;20017;-71
2023/12/19 00:06:00;;;;;;;14.18;12.52;;;;;;;2.93;79.92;99339.22;5043030;28;20389;-72
2023/12/19 00:08:25;;;;;;;15.20;12.70;;;;;;;2.98;80.04;99336.88;5040076;28;20488;-71
2023/12/19 00:10:50;;;;;;;15.27;13.13;;;;;;;2.90;80.22;99310.28;5043229;28;20040;-72
2023/12/19 00:13:16;;;;;;;15.75;13.60;;;;;;;2.97;80.18;99308.59;5016476;28;20508;-71
2023/12/19 00:15:42;;;;;;;15.05;12.48;;;;;;;3.07;79.63;99298.63;5044324;28;20036;-71
2023/12/19 00:18:07;;;;;;;14.85;12.45;;;;;;;3.14;79.66;99307.59;5015602;28;20034;-71
2023/12/19 00:20:32;;;;;;;13.10;11.57;;;;;;;3.12;79.08;99321.06;5018439;28;20040;-71
2023/12/19 00:22:58;;;;;;;14.25;12.10;;;;;;;3.19;78.89;99334.53;5043189;28;20111;-71
2023/12/19 00:25:23;;;;;;;13.73;12.13;;;;;;;3.09;79.19;99332.06;5020568;28;20033;-71
2023/12/19 00:27:49;;;;;;;14.50;12.50;;;;;;;3.16;78.67;99340.19;5022325;28;20025;-71
2023/12/19 00:30:15;;;;;;;13.23;11.82;;;;;;;3.00;79.08;99321.59;5020516;28;20068;-71
2023/12/19 00:32:40;;;;;;;14.45;12.20;;;;;;;3.16;78.47;99340.19;5043146;28;20053;-72
2023/12/19 00:35:06;;;;;;;15.13;12.30;;;;;;;3.18;79.02;99335.50;5024343;28;20026;-72
2023/12/19 00:37:31;;;;;;;13.93;12.48;;;;;;;3.14;78.68;99334.19;5042482;28;20435;-71
2023/12/19 00:39:56;;;;;;;14.27;12.00;;;;;;;3.14;78.66;99332.38;5041747;28;20044;-71
2023/12/19 00:42:22;;;;;;;14.93;12.98;;;;;;;3.12;78.61;99333.53;5042417;28;20043;-72
2023/12/19 00:44:47;;;;;;;14.93;13.20;;;;;;;3.05;78.93;99332.56;5005938;28;20056;-70
2023/12/19 00:47:13;;;;;;;16.52;13.30;;;;;;;2.99;78.87;99334.06;5039409;28;20473;-69
2023/12/19 00:49:38;;;;;;;15.25;12.50;;;;;;;3.05;78.79;99329.91;5031804;28;20053;-71
2023/12/19 00:52:03;;;;;;;14.50;12.43;;;;;;;3.04;79.50;99341.53;5040658;28;20381;-70
2023/12/19 00:54:29;;;;;;;17.20;12.90;;;;;;;2.88;79.65;99326.41;5037319;28;20041;-70
2023/12/19 00:56:54;;;;;;;14.63;13.05;;;;;;;3.01;79.11;99336.56;5014449;28;20087;-71
2023/12/19 00:59:20;;;;;;;17.58;13.15;;;;;;;3.10;79.20;99332.88;5016234;28;20040;-71
2023/12/19 01:01:46;;;;;;;16.30;13.13;;;;;;;3.13;78.85;99329.88;5044442;28;20033;-71
2023/12/19 01:04:12;;;;;;;13.52;12.02;;;;;;;3.16;79.15;99334.84;5015220;28;20477;-71
2023/12/19 01:06:37;;;;;;;14.13;12.18;;;;;;;3.21;78.86;99321.88;5017079;28;20120;-70
2023/12/19 01:09:04;;;;;;;14.95;12.80;;;;;;;3.23;78.99;99314.56;5037905;28;20041;-71
2023/12/19 01:11:29;;;;;;;13.35;11.90;;;;;;;3.23;78.77;99319.88;5036673;28;20029;-70
2023/12/19 01:13:55;;;;;;;14.75;12.50;;;;;;;3.25;78.64;99313.38;5041905;28;20493;-71
2023/12/19 01:16:20;;;;;;;12.30;11.10;;;;;;;3.23;78.52;99303.91;5019185;28;20017;-70
2023/12/19 01:18:45;;;;;;;13.75;11.57;;;;;;;3.31;78.60;99306.56;5041792;28;20504;-70
2023/12/19 01:21:11;;;;;;;15.55;12.52;;;;;;;3.33;78.31;99307.22;5014171;28;20060;-71
2023/12/19 01:23:36;;;;;;;13.75;12.35;;;;;;;3.27;78.43;99294.56;5022747;28;20392;-71
2023/12/19 01:26:02;;;;;;;14.73;12.85;;;;;;;3.33;78.86;99302.72;5040105;28;20469;-70
2023/12/19 01:28:27;;;;;;;14.68;11.77;;;;;;;3.40;78.16;99310.84;5043898;28;20029;-71
2023/12/19 01:30:52;;;;;;;13.80;12.40;;;;;;;3.36;78.64;99306.88;5039943;28;20575;-72
2023/12/19 01:33:18;;;;;;;13.68;11.98;;;;;;;3.36;78.18;99299.69;5036214;28;20034;-72
2023/12/19 01:35:43;;;;;;;12.57;11.32;;;;;;;3.39;78.12;99293.19;5022340;28;20493;-72
2023/12/19 01:38:09;;;;;;;14.38;12.93;;;;;;;3.50;78.35;99292.84;5018903;28;20029;-72
2023/12/19 01:40:34;;;;;;;13.23;11.70;;;;;;;3.53;78.22;99304.97;5018699;28;20022;-72
2023/12/19 01:43:00;;;;;;;14.48;12.50;;;;;;;3.44;77.86;99285.53;5014053;28;20393;-72
2023/12/19 01:45:27;;;;;;;15.60;12.63;;;;;;;3.56;77.99;99308.13;5016392;28;20079;-74
2023/12/19 01:47:53;;;;;;;14.82;12.60;;;;;;;3.58;77.78;99302.63;5033344;28;20060;-72
2023/12/19 01:50:18;;;;;;;16.08;13.68;;;;;;;3.61;78.00;99308.44;5023773;28;20080;-73
2023/12/19 01:52:55;;;;;;;15.60;13.15;;;;;;;3.65;77.55;99312.41;4999695;28;20061;-72
2023/12/19 01:55:24;;;;;;;13.88;12.23;;;;;;;3.67;77.68;99334.38;5020813;28;20113;-71
2023/12/19 01:57:49;;;;;;;13.02;11.55;;;;;;;3.59;77.23;99305.13;5021492;28;20045;-72
2023/12/19 02:00:15;;;;;;;13.82;11.27;;;;;;;3.72;77.22;99326.69;4998154;28;20037;-71
2023/12/19 02:02:40;;;;;;;13.45;11.63;;;;;;;3.73;77.08;99316.88;5035204;28;20025;-72
2023/12/19 02:05:06;;;;;;;13.68;12.15;;;;;;;3.74;77.25;99316.69;5001743;28;20444;-72
2023/12/19 02:07:32;;;;;;;12.65;11.00;;;;;;;3.76;77.09;99316.50;5018738;28;20026;-71
2023/12/19 02:09:59;;;;;;;12.93;11.63;;;;;;;3.76;76.64;99314.69;5022888;28;20033;-70
2023/12/19 02:12:25;;;;;;;13.48;11.88;;;;;;;3.79;76.92;99317.00;5021006;28;20021;-71
2023/12/19 02:14:50;;;;;;;13.50;11.20;;;;;;;3.75;76.82;99321.03;5022761;28;20064;-71
2023/12/19 02:17:16;;;;;;;12.90;11.40;;;;;;;3.68;76.92;99325.41;5013497;28;20053;-70
2023/12/19 02:19:49;;;;;;;12.23;10.93;;;;;;;3.74;76.63;99315.84;5038545;28;20507;-70
2023/12/19 02:22:15;;;;;;;13.40;11.02;;;;;;;3.61;76.56;99292.47;5013347;28;20097;-71
2023/12/19 02:24:41;;;;;;;12.25;10.95;;;;;;;3.70;76.41;99304.72;5034407;28;20148;-72
2023/12/19 02:27:07;;;;;;;11.90;10.70;;;;;;;3.73;76.64;99300.91;5014267;28;20041;-71
2023/12/19 02:29:32;;;;;;;13.07;11.00;;;;;;;3.71;76.49;99303.72;5034408;28;20033;-71
2023/12/19 02:31:58;;;;;;;12.73;10.93;;;;;;;3.69;76.87;99295.06;5003763;28;20041;-71
2023/12/19 02:34:23;;;;;;;12.45;11.15;;;;;;;3.72;76.60;99300.06;5013484;28;20040;-71
2023/12/19 02:36:49;;;;;;;11.98;10.65;;;;;;;3.73;76.38;99296.41;5013274;28;20048;-70
2023/12/19 02:39:14;;;;;;;13.18;10.75;;;;;;;3.66;76.63;99284.78;5037153;28;20026;-70
2023/12/19 02:41:40;;;;;;;11.85;10.68;;;;;;;3.76;76.49;99285.38;5042111;28;20115;-71
2023/12/19 02:44:05;;;;;;;12.88;11.35;;;;;;;3.78;76.34;99267.38;4991651;28;20021;-72
2023/12/19 02:46:32;;;;;;;14.82;11.15;;;;;;;3.71;76.41;99252.31;5040607;28;20040;-71
2023/12/19 02:48:57;;;;;;;13.55;10.70;;;;;;;3.70;76.22;99240.81;5015173;28;20084;-71
2023/12/19 02:51:24;;;;;;;12.52;11.23;;;;;;;3.67;76.87;99233.16;5036562;28;20477;-72
2023/12/19 02:53:50;;;;;;;13.02;11.15;;;;;;;3.80;76.19;99244.09;5039638;28;20017;-70
2023/12/19 02:56:15;;;;;;;11.85;10.50;;;;;;;3.73;76.17;99226.31;5039405;28;20045;-71
2023/12/19 02:58:40;;;;;;;12.60;11.27;;;;;;;3.79;75.89;99242.41;5040478;28;20030;-71
2023/12/19 03:01:06;;;;;;;12.25;10.65;;;;;;;3.73;76.13;99229.81;5024971;28;20032;-71
2023/12/19 03:03:32;;;;;;;12.45;11.15;;;;;;;3.75;76.83;99245.59;4996777;28;20397;-71
2023/12/19 03:05:57;;;;;;;12.48;11.05;;;;;;;3.77;76.30;99263.06;5041635;28;20116;-72
2023/12/19 03:08:22;;;;;;;13.65;11.13;;;;;;;3.74;76.68;99255.44;5002148;28;20021;-71
2023/12/19 03:10:48;;;;;;;12.32;10.70;;;;;;;3.69;76.33;99252.44;5018046;28;20049;-71
2023/12/19 03:13:13;;;;;;;12.77;11.35;;;;;;;3.60;76.92;99242.00;5040712;28;20117;-71
2023/12/19 03:15:39;;;;;;;12.60;11.15;;;;;;;3.55;76.82;99239.06;5017238;28;20072;-70
2023/12/19 03:18:04;;;;;;;14.20;12.30;;;;;;;3.45;76.66;99223.31;5040056;28;20037;-70
2023/12/19 03:20:29;;;;;;;13.55;11.13;;;;;;;3.51;77.28;99238.56;5043906;28;20389;-71
2023/12/19 03:22:55;;;;;;;14.07;11.52;;;;;;;3.52;77.09;99250.91;5043921;28;20545;-71
2023/12/19 03:25:20;;;;;;;14.05;12.48;;;;;;;3.50;76.95;99264.38;5018043;28;20080;-71
2023/12/19 03:27:45;;;;;;;13.63;11.85;;;;;;;3.45;77.30;99265.91;5009071;28;20507;-72
2023/12/19 03:30:11;;;;;;;15.23;13.20;;;;;;;3.34;77.13;99237.81;5016342;28;20088;-71
2023/12/19 03:32:37;;;;;;;18.35;13.90;;;;;;;3.45;77.32;99244.59;5021651;28;20032;-72
2023/12/19 03:35:02;;;;;;;14.60;12.10;;;;;;;3.40;77.03;99241.63;5005535;28;20041;-72
2023/12/19 03:37:28;;;;;;;16.88;12.88;;;;;;;3.33;77.06;99222.03;5002613;28;20477;-72
2023/12/19 03:39:53;;;;;;;21.15;14.32;;;;;;;3.39;77.19;99237.28;5002675;28;20104;-72
2023/12/19 03:42:18;;;;;;;17.55;13.18;;;;;;;3.36;76.76;99245.66;5000813;28;20021;-71
2023/12/19 03:44:44;;;;;;;15.80;12.45;;;;;;;3.30;77.28;99233.00;5044411;28;20045;-71
2023/12/19 03:47:12;;;;;;;14.52;11.73;;;;;;;3.26;77.32;99237.88;5016886;28;20112;-71
2023/12/19 03:49:37;;;;;;;17.05;13.13;;;;;;;3.21;77.53;99220.75;5020795;28;20052;-71
2023/12/19 03:52:03;;;;;;;17.23;12.77;;;;;;;3.25;77.32;99230.03;5044107;28;20020;-71
2023/12/19 03:54:29;;;;;;;16.77;12.70;;;;;;;3.22;77.42;99222.41;5016293;28;20061;-71
2023/12/19 03:56:54;;;;;;;14.00;12.13;;;;;;;3.18;77.59;99213.94;5041213;28;20087;-71
2023/12/19 03:59:20;;;;;;;14.40;12.48;;;;;;;3.15;77.56;99216.94;5019709;28;20038;-71
2023/12/19 04:01:45;;;;;;;15.88;12.70;;;;;;;3.19;77.39;99214.75;5024602;28;20564;-70
2023/12/19 04:04:11;;;;;;;15.98;11.63;;;;;;;3.02;77.41;99178.56;5022598;28;20053;-71
2023/12/19 04:06:42;;;;;;;13.00;11.60;;;;;;;3.18;77.42;99195.31;5001564;28;20033;-71
2023/12/19 04:09:08;;;;;;;12.38;11.18;;;;;;;3.09;77.52;99188.34;5021687;28;20041;-70
2023/12/19 04:11:34;;;;;;;15.07;11.75;;;;;;;3.14;77.85;99209.97;5015454;28;20037;-71
2023/12/19 04:13:59;;;;;;;12.95;11.63;;;;;;;3.15;77.90;99205.47;5039686;28;20033;-71
2023/12/19 04:16:24;;;;;;;12.95;11.57;;;;;;;3.07;77.53;99177.06;5043712;28;20025;-70
2023/12/19 04:18:50;;;;;;;14.18;12.45;;;;;;;3.20;77.16;99187.13;5005494;28;20033;-70
2023/12/19 04:21:15;;;;;;;14.18;11.65;;;;;;;3.15;77.40;99190.31;5016300;28;20021;-70
2023/12/19 04:23:40;;;;;;;12.82;11.10;;;;;;;3.22;77.41;99191.28;5044251;28;20045;-71
2023/12/19 04:26:06;;;;;;;12.07;10.85;;;;;;;3.24;77.56;99177.81;5040490;28;20036;-72
2023/12/19 04:28:31;;;;;;;12.32;11.02;;;;;;;3.28;77.61;99184.44;5042715;28;20463;-71
2023/12/19 04:30:56;;;;;;;12.95;11.43;;;;;;;3.32;77.47;99186.59;5015164;28;20028;-72
2023/12/19 04:33:22;;;;;;;12.65;10.90;;;;;;;3.30;77.21;99182.44;5022155;28;20445;-72
2023/12/19 04:35:47;;;;;;;11.98;10.25;;;;;;;3.33;77.44;99176.78;5019401;28;20025;-72
2023/12/19 04:38:13;;;;;;;12.57;11.27;;;;;;;3.35;77.37;99172.09;5021608;28;20034;-72
2023/12/19 04:40:39;;;;;;;12.07;10.77;;;;;;;3.38;76.90;99169.09;5020399;28;20021;-72
2023/12/19 04:43:04;;;;;;;12.63;10.82;;;;;;;3.43;76.98;99172.06;5015115;28;20494;-72
2023/12/19 04:45:29;;;;;;;14.10;10.68;;;;;;;3.38;77.12;99163.78;5041300;28;20025;-72
2023/12/19 04:47:55;;;;;;;16.35;10.75;;;;;;;3.38;77.16;99164.56;5039046;28;20099;-72
2023/12/19 04:50:20;;;;;;;13.43;11.48;;;;;;;3.41;77.08;99168.72;5022768;28;20025;-72
2023/12/19 04:52:46;;;;;;;12.13;10.80;;;;;;;3.44;76.95;99152.41;5023027;28;20496;-72
2023/12/19 04:55:11;;;;;;;13.23;11.43;;;;;;;3.38;76.73;99142.47;5045078;28;20017;-72
2023/12/19 04:57:36;;;;;;;13.77;11.45;;;;;;;3.33;76.47;99136.84;5043880;28;20510;-72
2023/12/19 05:00:04;;;;;;;12.63;11.30;;;;;;;3.41;76.88;99156.25;5016806;28;20029;-72
2023/12/19 05:02:29;;;;;;;11.88;10.60;;;;;;;3.39;77.15;99149.44;5041180;28;20083;-72
2023/12/19 05:04:55;;;;;;;14.77;11.30;;;;;;;3.37;77.04;99152.28;5044656;28;20052;-72
2023/12/19 05:07:20;;;;;;;12.43;11.05;;;;;;;3.27;77.29;99132.19;5022380;28;20037;-71
2023/12/19 05:09:46;;;;;;;13.38;11.50;;;;;;;3.35;76.76;99143.66;5019339;28;20174;-71
2023/12/19 05:12:11;;;;;;;12.45;10.85;;;;;;;3.31;76.99;99131.66;5038187;28;20080;-73
2023/12/19 05:14:37;;;;;;;13.75;11.07;;;;;;;3.36;76.95;99123.19;5020556;28;20033;-72
2023/12/19 05:17:03;;;;;;;13.00;11.40;;;;;;;3.38;76.76;99126.50;5014525;28;20034;-74
2023/12/19 05:19:29;;;;;;;12.55;11.27;;;;;;;3.41;76.61;99132.28;5041151;28;20486;-73
2023/12/19 05:21:54;;;;;;;14.20;11.75;;;;;;;3.38;76.50;99121.19;5016369;28;20064;-73
2023/12/19 05:24:20;;;;;;;13.68;12.25;;;;;;;3.39;77.43;99122.81;5040152;28;20418;-74
2023/12/19 05:26:45;;;;;;;14.48;11.85;;;;;;;3.43;76.90;99124.16;5039970;28;20132;-73
2023/12/19 05:29:11;;;;;;;13.48;11.13;;;;;;;3.43;77.13;99121.47;5030316;28;20056;-73
2023/12/19 05:31:36;;;;;;;15.13;12.30;;;;;;;3.47;77.11;99136.09;5027515;28;20559;-73
2023/12/19 05:34:01;;;;;;;15.82;14.20;;;;;;;3.41;76.74;99132.28;5030462;28;20017;-73
2023/12/19 05:36:27;;;;;;;16.02;12.70;;;;;;;3.42;76.76;99125.13;5018998;28;20449;-73
2023/12/19 05:38:52;;;;;;;14.00;11.98;;;;;;;3.39;76.79;99114.84;5029214;28;20534;-72
2023/12/19 05:41:18;;;;;;;16.52;12.98;;;;;;;3.46;76.99;99129.94;5040157;28;20037;-73
2023/12/19 05:43:43;;;;;;;13.82;12.25;;;;;;;3.48;77.09;99122.59;5045535;28;20114;-73
2023/12/19 05:46:09;;;;;;;14.40;12.90;;;;;;;3.51;76.88;99126.75;5021001;28;20382;-71
2023/12/19 05:48:34;;;;;;;16.67;14.75;;;;;;;3.45;77.29;99133.59;5015429;28;20164;-73
2023/12/19 05:50:59;;;;;;;18.63;15.70;;;;;;;3.50;76.93;99141.06;5016939;28;20037;-72
2023/12/19 05:53:25;;;;;;;15.55;13.95;;;;;;;3.37;77.65;99124.84;5016186;28;20037;-72
2023/12/19 05:55:51;;;;;;;14.88;13.30;;;;;;;3.42;77.11;99133.97;5016805;28;20496;-72
2023/12/19 05:58:16;;;;;;;16.85;13.95;;;;;;;3.43;77.69;99129.47;5029837;28;20033;-72
2023/12/19 06:00:44;;;;;;;14.98;12.75;;;;;;;3.44;77.23;99125.78;5043016;28;20033;-72
2023/12/19 06:03:10;;;;;;;14.70;12.85;;;;;;;3.43;77.30;99124.16;5037862;28;20029;-72
2023/12/19 06:05:38;;;;;;;16.85;14.73;;;;;;;3.48;77.28;99132.41;5007925;28;20165;-72
2023/12/19 06:08:07;;;;;;;13.25;11.70;;;;;;;3.50;77.18;99136.56;5039088;28;20047;-72
2023/12/19 06:10:32;;;;;;;13.55;12.13;;;;;;;3.52;77.13;99141.72;5041903;28;20036;-72
2023/12/19 06:12:58;;;;;;;14.05;12.55;;;;;;;3.49;76.94;99139.41;5028828;28;20021;-72
2023/12/19 06:15:23;;;;;;;14.55;12.85;;;;;;;3.48;76.85;99133.25;5040222;28;20044;-73
2023/12/19 06:17:49;;;;;;;14.02;11.45;;;;;;;3.39;76.98;99130.81;5011117;28;20106;-74
2023/12/19 06:20:14;;;;;;;13.60;12.02;;;;;;;3.52;77.06;99138.22;5027399;28;20049;-72
2023/12/19 06:22:43;;;;;;;13.32;11.88;;;;;;;3.50;77.05;99135.75;5030261;28;20101;-72
2023/12/19 06:25:08;;;;;;;13.45;12.13;;;;;;;3.52;76.61;99144.38;5031142;28;20053;-72
2023/12/19 06:27:34;;;;;;;13.30;10.90;;;;;;;3.48;76.86;99149.22;5042418;28;20114;-74
2023/12/19 06:30:00;;;;;;;13.07;11.65;;;;;;;3.46;77.13;99145.91;5006852;28;20037;-72
2023/12/19 06:32:26;;;;;;;13.00;11.55;;;;;;;3.45;77.17;99148.75;5048439;28;20052;-72
2023/12/19 06:34:51;;;;;;;12.88;11.48;;;;;;;3.42;76.95;99143.78;4990684;28;20107;-72
2023/12/19 06:37:17;;;;;;;13.02;11.57;;;;;;;3.37;77.06;99140.81;5001210;28;20176;-72
2023/12/19 06:39:42;;;;;;;13.95;12.30;;;;;;;3.40;77.19;99140.47;5037110;28;20515;-73
2023/12/19 06:42:08;;;;;;;13.35;12.02;;;;;;;3.32;77.37;99138.66;5039615;28;20107;-72
2023/12/19 06:44:33;;;;;;;13.88;11.95;;;;;;;3.36;77.40;99145.28;5013776;28;20045;-72
2023/12/19 06:46:58;;;;;;;16.02;13.52;;;;;;;3.32;77.51;99145.81;5038028;28;20021;-72
2023/12/19 06:49:27;;;;;;;15.18;13.68;;;;;;;3.15;77.10;99120.31;5023032;28;20038;-72
2023/12/19 06:51:53;;;;;;;15.32;13.73;;;;;;;3.25;77.16;99128.88;5006052;28;20025;-72
2023/12/19 06:54:18;;;;;;;15.45;13.23;;;;;;;3.26;77.24;99138.53;5027480;28;20096;-72
2023/12/19 06:56:43;;;;;;;13.82;12.40;;;;;;;3.23;77.35;99138.88;5046541;28;20060;-73
2023/12/19 06:59:09;;;;;;;14.30;12.80;;;;;;;3.17;77.26;99139.59;5048523;28;20459;-72
2023/12/19 07:01:35;;;;;;;14.93;13.32;;;;;;;3.15;77.41;99141.59;5004104;28;20036;-73
2023/12/19 07:04:01;;;;;;;17.33;14.13;;;;;;;3.04;77.35;99123.34;5029742;28;20608;-72
2023/12/19 07:06:26;;;;;;;14.93;13.32;;;;;;;3.13;77.53;99138.25;5036488;28;20021;-72
2023/12/19 07:08:52;;;;;;;15.63;13.93;;;;;;;3.03;77.73;99121.72;5046968;28;20497;-72
2023/12/19 07:11:20;;;;;;;15.30;13.70;;;;;;;3.10;77.67;99138.63;5018006;28;20496;-72
2023/12/19 07:13:46;;;;;;;15.25;12.70;;;;;;;2.98;77.75;99124.88;5019853;28;20038;-72
2023/12/19 07:16:17;;;;;;;14.95;13.27;;;;;;;3.08;77.50;99136.13;5043050;28;20021;-72
2023/12/19 07:18:43;;;;;;;15.35;12.10;;;;;;;2.93;77.99;99126.41;5048400;28;20041;-72
2023/12/19 07:21:17;;;;;;;14.07;12.40;;;;;;;2.91;77.62;99125.75;5032979;28;20032;-72
2023/12/19 07:23:43;;;;;;;14.98;13.18;;;;;;;3.01;77.51;99140.47;5004905;28;20121;-72
2023/12/19 07:26:19;;;;;;;15.18;12.75;;;;;;;2.98;77.58;99132.03;5042476;28;20108;-72
2023/12/19 07:28:44;;;;;;;;;;;;;;;2.71;77.82;99128.81;5021748;28;20037;-72
2023/12/19 07:31:19;;;;;;;14.97;12.63;;;;;;;2.89;77.65;99115.28;5046727;28;19915;-72
2023/12/19 07:33:44;;;;;;;10.23;9.13;;;;;;;2.80;77.69;99109.16;5036596;28;20484;-72
2023/12/19 07:36:10;;;;;;;14.50;12.90;;;;;;;2.93;77.60;99127.22;5045568;28;20057;-72
2023/12/19 07:38:35;;;;;;;13.85;11.98;;;;;;;2.95;78.06;99127.03;4992143;28;20030;-72
2023/12/19 07:41:01;;;;;;;13.85;12.43;;;;;;;2.96;78.08;99120.75;5035185;28;20481;-72
2023/12/19 07:43:26;;;;;;;13.20;11.82;;;;;;;2.88;77.95;99112.78;5036738;28;20033;-72
2023/12/19 07:45:52;;;;;;;14.05;12.65;;;;;;;2.93;77.95;99110.44;5045639;28;20033;-72
2023/12/19 07:48:17;;;;;;;14.93;12.02;;;;;;;2.93;77.92;99105.13;5044741;28;20481;-72
2023/12/19 07:50:42;;;;;;;14.52;12.50;;;;;;;2.80;77.61;99082.56;5031905;28;20055;-72
2023/12/19 07:53:08;;;;;;;22.42;17.67;;;;;;;2.80;77.46;99090.53;5007733;28;20455;-72
2023/12/19 07:55:33;;;;;;;90.75;59.03;;;;;;;2.83;77.75;99084.03;5048662;28;20449;-72
2023/12/19 07:57:59;;;;;;;41.25;27.85;;;;;;;2.88;77.73;99086.19;5047222;28;20047;-72
2023/12/19 08:00:24;;;;;;;67.15;41.08;;;;;;;2.89;78.08;99093.19;5047400;28;20055;-72
2023/12/19 08:02:50;;;;;;;28.15;20.48;;;;;;;2.83;77.59;99064.59;5037038;28;20405;-72
2023/12/19 08:05:15;;;;;;;15.05;13.25;;;;;;;2.90;77.41;99070.88;5046535;28;20075;-72
2023/12/19 08:07:41;;;;;;;14.18;12.63;;;;;;;2.97;77.90;99085.13;5030935;28;20060;-72
2023/12/19 08:10:07;;;;;;;16.38;13.73;;;;;;;2.99;77.54;99089.28;5045434;28;20028;-72
2023/12/19 08:12:32;;;;;;;15.80;13.52;;;;;;;3.02;76.97;99098.75;5018240;28;20043;-72
2023/12/19 08:14:58;;;;;;;15.93;13.88;;;;;;;3.06;77.54;99100.06;4979656;28;20073;-72
2023/12/19 08:17:23;;;;;;;15.93;14.23;;;;;;;3.06;77.73;99092.91;5039141;28;20020;-72
2023/12/19 08:19:49;;;;;;;16.90;13.93;;;;;;;3.05;77.65;99099.25;5033053;28;20470;-72
2023/12/19 08:22:14;;;;;;;15.43;13.82;;;;;;;3.09;77.09;99105.03;5037278;28;20053;-72
2023/12/19 08:24:40;;;;;;;15.15;13.55;;;;;;;2.98;77.51;99070.84;5047846;28;20087;-72
2023/12/19 08:27:05;;;;;;;14.90;13.27;;;;;;;3.11;77.21;99097.69;5016774;28;20532;-72
2023/12/19 08:29:30;;;;;;;13.88;12.43;;;;;;;2.94;77.40;99070.34;5028105;28;20037;-72
2023/12/19 08:31:56;;;;;;;13.23;11.82;;;;;;;3.17;76.83;99086.38;5022551;28;20441;-73
2023/12/19 08:34:21;;;;;;;13.60;12.13;;;;;;;3.16;77.09;99074.06;5019679;28;20028;-73
2023/12/19 08:36:47;;;;;;;13.35;11.93;;;;;;;3.24;77.22;99071.34;5033056;28;20413;-72
2023/12/19 08:39:12;;;;;;;13.38;11.95;;;;;;;3.24;77.07;99072.19;5032501;28;20036;-72
2023/12/19 08:41:37;;;;;;;14.18;12.75;;;;;;;3.17;76.95;99057.94;5035505;28;20029;-72
2023/12/19 08:44:03;;;;;;;13.30;11.90;;;;;;;3.35;76.77;99084.25;5029737;28;20028;-73
2023/12/19 08:46:28;;;;;;;12.88;11.57;;;;;;;3.40;76.57;99072.06;5021838;28;20033;-73
2023/12/19 08:48:54;;;;;;;13.68;12.27;;;;;;;3.53;76.36;99070.63;5045337;28;20033;-73
2023/12/19 08:51:20;;;;;;;14.30;11.55;;;;;;;3.51;76.03;99068.16;5045033;28;20041;-72
2023/12/19 08:53:45;;;;;;;13.15;11.05;;;;;;;3.65;76.00;99070.03;5052818;28;20480;-72
2023/12/19 08:56:11;;;;;;;13.10;11.57;;;;;;;3.68;75.77;99069.69;5013828;28;20044;-72
2023/12/19 08:58:36;;;;;;;12.77;11.23;;;;;;;3.78;76.05;99075.59;5046693;28;20055;-72
2023/12/19 09:01:01;;;;;;;14.27;10.60;;;;;;;3.73;75.55;99055.84;5001251;28;20041;-72
2023/12/19 09:03:27;;;;;;;12.40;11.10;;;;;;;3.78;75.23;99032.97;5024119;28;20085;-72
2023/12/19 09:05:52;;;;;;;11.68;10.38;;;;;;;3.90;75.41;99042.19;5013143;28;20049;-72
2023/12/19 09:08:18;;;;;;;12.35;10.88;;;;;;;3.96;75.03;99041.47;5035629;28;20101;-72
2023/12/19 09:10:45;;;;;;;14.60;11.73;;;;;;;4.09;75.10;99056.81;5021899;28;20034;-72
2023/12/19 09:13:10;;;;;;;14.43;11.13;;;;;;;4.09;75.01;99052.31;5023180;28;20457;-72
2023/12/19 09:15:35;;;;;;;14.05;12.05;;;;;;;4.15;74.29;99056.09;5034942;28;20049;-71
2023/12/19 09:18:02;;;;;;;13.05;11.73;;;;;;;4.17;74.38;99044.25;5033662;28;20017;-72
2023/12/19 09:20:28;;;;;;;15.50;13.18;;;;;;;4.11;74.05;99018.31;5029064;28;20473;-71
2023/12/19 09:22:54;;;;;;;14.80;11.85;;;;;;;4.20;74.59;99033.19;5025726;28;20044;-71
2023/12/19 09:25:19;;;;;;;12.63;11.02;;;;;;;4.27;74.01;99037.81;5038687;28;20067;-72
2023/12/19 09:27:45;;;;;;;14.88;11.80;;;;;;;4.30;73.88;99037.44;5037245;28;20049;-71
2023/12/19 09:30:11;;;;;;;15.50;12.23;;;;;;;4.28;73.73;99023.47;5023800;28;20029;-72
2023/12/19 09:32:38;;;;;;;13.13;11.45;;;;;;;4.14;73.63;99004.63;5038145;28;20030;-74
2023/12/19 09:35:04;;;;;;;15.65;13.40;;;;;;;4.25;73.49;99032.66;5011031;28;20045;-72
2023/12/19 09:37:30;;;;;;;16.15;14.15;;;;;;;4.33;74.25;99037.06;5022383;28;20031;-74
2023/12/19 09:39:55;;;;;;;15.20;13.25;;;;;;;4.30;73.92;99026.75;5016636;28;20041;-72
2023/12/19 09:42:20;;;;;;;13.88;11.85;;;;;;;4.31;74.34;99028.44;5027757;28;20074;-72
2023/12/19 09:44:47;;;;;;;13.55;10.93;;;;;;;4.22;73.49;99020.50;4998685;28;20509;-72
2023/12/19 09:47:20;;;;;;;11.50;10.07;;;;;;;4.39;73.22;99037.16;5042292;28;20025;-72
2023/12/19 09:49:47;;;;;;;12.18;10.90;;;;;;;4.41;73.13;99045.00;5044897;28;20056;-73
2023/12/19 09:52:12;;;;;;;11.77;10.55;;;;;;;4.39;73.50;99036.34;5010336;28;20028;-72
2023/12/19 09:54:37;;;;;;;11.95;10.25;;;;;;;4.40;73.24;99014.00;5022278;28;20124;-72
2023/12/19 09:57:03;;;;;;;13.55;10.50;;;;;;;4.39;72.63;98999.81;5018559;28;20068;-72
2023/12/19 09:59:29;;;;;;;13.00;11.00;;;;;;;4.49;72.74;99004.88;5011286;28;20029;-72
2023/12/19 10:01:56;;;;;;;11.70;10.48;;;;;;;4.52;72.80;99010.69;5029558;28;20021;-72
2023/12/19 10:04:21;;;;;;;11.70;10.50;;;;;;;4.61;71.95;99024.72;5025418;28;20030;-73
2023/12/19 10:06:58;;;;;;;11.80;10.60;;;;;;;4.62;73.04;99021.88;5037154;28;20032;-72
2023/12/19 10:09:23;;;;;;;10.82;9.60;;;;;;;4.62;72.47;99015.72;5018639;28;20041;-72
2023/12/19 10:12:09;;;;;;;12.15;10.57;;;;;;;4.61;71.55;99016.72;5007081;28;20374;-72
2023/12/19 10:14:35;;;;;;;14.55;12.10;;;;;;;4.58;72.25;99007.25;5025047;28;20040;-72
2023/12/19 10:17:04;;;;;;;13.20;10.98;;;;;;;4.66;71.67;98995.66;5024203;28;20025;-73
2023/12/19 10:19:30;;;;;;;11.52;10.32;;;;;;;4.67;71.81;98997.28;5038023;28;20056;-72
2023/12/19 10:22:16;;;;;;;14.10;12.70;;;;;;;4.69;71.91;98984.63;5042389;28;20060;-72
2023/12/19 10:24:42;;;;;;;12.75;11.45;;;;;;;4.73;72.34;98976.06;5033586;28;20378;-73
2023/12/19 10:27:08;;;;;;;11.02;9.93;;;;;;;4.74;71.81;98950.19;5035258;28;20026;-72
2023/12/19 10:29:36;;;;;;;11.95;10.75;;;;;;;4.81;71.76;98953.75;5028665;28;20029;-72
2023/12/19 10:32:16;;;;;;;16.63;11.95;;;;;;;4.86;71.47;98954.84;4999277;28;20060;-72
2023/12/19 10:34:42;;;;;;;13.27;11.68;;;;;;;4.99;70.73;98948.00;4976342;28;20037;-72
2023/12/19 10:37:20;;;;;;;13.00;11.50;;;;;;;5.26;70.73;98974.75;5040877;28;20025;-73
2023/12/19 10:39:47;;;;;;;14.65;12.23;;;;;;;5.28;71.08;98962.03;5002502;28;20038;-72
2023/12/19 10:42:13;;;;;;;15.65;13.20;;;;;;;5.25;70.21;98945.56;5022230;28;20060;-73
2023/12/19 10:44:39;;;;;;;15.25;12.02;;;;;;;5.36;70.57;98961.91;5007955;28;20120;-73
2023/12/19 10:47:08;;;;;;;14.73;13.10;;;;;;;5.40;70.36;98975.69;5017933;28;20061;-73
2023/12/19 10:49:37;;;;;;;15.82;13.48;;;;;;;5.39;70.68;98950.00;5030705;28;20122;-73
2023/12/19 10:52:05;;;;;;;14.98;13.15;;;;;;;5.60;70.94;98964.13;5021073;28;20092;-73
2023/12/19 10:54:33;;;;;;;13.63;12.10;;;;;;;5.60;70.38;98968.69;5005110;28;20047;-73
2023/12/19 10:57:10;;;;;;;13.50;11.98;;;;;;;5.67;70.37;98974.06;4996767;28;20039;-73
2023/12/19 10:59:48;;;;;;;13.63;11.88;;;;;;;5.72;70.08;98955.59;5008529;28;20412;-72
2023/12/19 11:02:33;;;;;;;13.13;11.45;;;;;;;5.65;69.54;98914.66;5001005;28;20482;-73
2023/12/19 11:05:08;;;;;;;12.90;11.13;;;;;;;5.83;69.65;98926.50;5019658;28;20061;-72
2023/12/19 11:07:34;;;;;;;14.55;11.25;;;;;;;5.95;69.70;98930.28;5032478;28;20060;-74
2023/12/19 11:10:06;;;;;;;12.38;10.52;;;;;;;5.93;69.61;98931.50;5016059;28;20025;-72
2023/12/19 11:12:35;;;;;;;12.48;11.10;;;;;;;5.79;69.66;98929.75;5026135;28;20500;-72
2023/12/19 11:15:02;;;;;;;12.40;10.63;;;;;;;5.67;69.14;98917.94;5013755;28;20037;-72
2023/12/19 11:17:33;;;;;;;12.65;10.73;;;;;;;5.65;70.02;98909.31;5018061;28;20052;-72
2023/12/19 11:20:33;;;;;;;12.55;11.25;;;;;;;5.69;69.65;98921.25;5023027;28;20042;-71
2023/12/19 11:23:24;;;;;;;13.63;10.52;;;;;;;5.51;70.40;98911.88;5019394;28;20100;-72